Time;durP1;ratioP1;P1;durP2;ratioP2;P2;SDS_P1;SDS_P2;PMS_P1;PMS_P2;Temp;Humidity;BMP_temperature;BMP_pressure;BME280_temperature;BME280_humidity;BME280_pressure;Samples;Min_cycle;Max_cycle;Signal;HPM_P1;HPM_P2
2023/08/23 00:00:34;;;;;;;1.65;0.60;;;17.80;82.00;;;;;;4886420;29;20047;-88
2023/08/23 00:03:08;;;;;;;1.10;0.30;;;17.70;82.10;;;;;;4901477;29;20060;-88
2023/08/23 00:05:39;;;;;;;1.35;0.40;;;17.70;82.10;;;;;;4895522;29;20048;-88
2023/08/23 00:08:07;;;;;;;2.30;0.50;;;17.70;82.20;;;;;;4919526;29;20139;-88
2023/08/23 00:10:40;;;;;;;1.45;0.50;;;17.70;82.20;;;;;;4901967;29;20048;-88
2023/08/23 00:13:09;;;;;;;1.48;0.55;;;17.70;82.30;;;;;;4916582;29;20099;-88
2023/08/23 00:15:42;;;;;;;0.47;0.28;;;17.70;82.50;;;;;;4900853;29;20099;-88
2023/08/23 00:18:11;;;;;;;1.33;0.50;;;17.60;82.50;;;;;;4914578;29;20051;-88
2023/08/23 00:20:43;;;;;;;1.30;0.38;;;17.60;82.50;;;;;;4909440;29;20052;-88
2023/08/23 00:23:11;;;;;;;1.25;0.40;;;17.60;82.60;;;;;;4903716;29;20146;-88
2023/08/23 00:25:40;;;;;;;1.02;0.45;;;17.60;82.70;;;;;;4908299;29;20461;-89
2023/08/23 00:28:07;;;;;;;2.05;0.57;;;17.50;82.70;;;;;;4919556;29;20055;-89
2023/08/23 00:30:58;;;;;;;1.35;0.60;;;17.50;82.80;;;;;;4909593;29;20052;-89
2023/08/23 00:33:25;;;;;;;1.58;0.57;;;17.50;82.90;;;;;;4902290;29;20048;-89
2023/08/23 00:35:55;;;;;;;1.70;0.57;;;17.50;83.00;;;;;;4903499;29;20044;-89
2023/08/23 00:38:28;;;;;;;1.17;0.55;;;17.50;83.00;;;;;;4900706;29;20052;-87
2023/08/23 00:40:55;;;;;;;0.85;0.43;;;17.50;83.10;;;;;;4935459;29;20040;-92
2023/08/23 00:43:25;;;;;;;1.40;0.55;;;17.40;83.10;;;;;;4919766;29;20044;-91
2023/08/23 00:45:59;;;;;;;1.42;0.50;;;17.40;83.20;;;;;;4905027;29;20044;-92
2023/08/23 00:48:29;;;;;;;3.35;0.73;;;17.40;83.30;;;;;;4910069;29;20071;-92
2023/08/23 00:50:58;;;;;;;1.48;0.50;;;17.40;83.40;;;;;;4906984;29;20051;-92
2023/08/23 00:53:26;;;;;;;1.63;0.52;;;17.30;83.40;;;;;;4919504;29;20485;-92
2023/08/23 00:55:55;;;;;;;3.08;0.50;;;17.30;83.50;;;;;;4906618;29;20050;-92
2023/08/23 00:58:45;;;;;;;0.95;0.43;;;17.30;83.50;;;;;;4900885;29;20146;-89
2023/08/23 01:01:15;;;;;;;1.15;0.50;;;17.30;83.60;;;;;;4914344;29;20103;-89
2023/08/23 01:03:46;;;;;;;1.25;0.50;;;17.30;83.60;;;;;;4924761;29;20071;-89
2023/08/23 01:06:45;;;;;;;1.88;0.82;;;17.20;83.60;;;;;;4904422;29;20075;-89
2023/08/23 01:10:03;;;;;;;1.13;0.50;;;17.20;83.70;;;;;;4920281;29;20043;-88
2023/08/23 01:12:56;;;;;;;1.35;0.65;;;17.20;83.90;;;;;;4885766;29;20457;-92
2023/08/23 01:15:37;;;;;;;1.10;0.50;;;17.20;84.00;;;;;;4902570;29;20536;-92
2023/08/23 01:18:08;;;;;;;1.60;0.57;;;17.10;84.00;;;;;;4900940;29;20389;-91
2023/08/23 01:20:41;;;;;;;1.98;0.60;;;17.10;84.00;;;;;;4916348;29;20048;-92
2023/08/23 01:23:17;;;;;;;1.10;0.30;;;17.10;84.00;;;;;;4900400;29;20047;-92
2023/08/23 01:25:51;;;;;;;1.27;0.65;;;17.10;84.10;;;;;;4900679;29;20040;-91
2023/08/23 01:28:23;;;;;;;2.22;0.70;;;17.10;84.20;;;;;;4900899;29;20052;-91
2023/08/23 01:30:51;;;;;;;1.10;0.40;;;17.00;84.20;;;;;;4913557;29;20048;-89
2023/08/23 01:33:27;;;;;;;1.88;0.70;;;17.00;84.30;;;;;;4905609;29;20048;-89
2023/08/23 01:36:19;;;;;;;1.45;0.70;;;17.00;84.40;;;;;;4900125;29;20059;-90
2023/08/23 01:39:00;;;;;;;1.80;0.68;;;17.00;84.50;;;;;;4914353;29;20409;-89
2023/08/23 01:41:31;;;;;;;2.50;0.68;;;17.00;84.50;;;;;;4896482;29;20405;-90
2023/08/23 01:43:59;;;;;;;1.15;0.50;;;17.00;84.50;;;;;;4919075;29;20048;-89
2023/08/23 01:46:38;;;;;;;;;;;;;;;;;;;;;
2023/08/23 01:49:18;;;;;;;2.13;0.60;;;17.00;84.70;;;;;;4916890;29;20054;-90
2023/08/23 01:51:46;;;;;;;1.67;0.50;;;16.90;84.70;;;;;;4906919;29;20071;-89
2023/08/23 01:54:13;;;;;;;1.55;0.60;;;16.90;84.70;;;;;;4906366;29;20051;-89
2023/08/23 01:56:50;;;;;;;1.45;0.60;;;16.90;84.70;;;;;;4916230;29;20048;-89
2023/08/23 01:59:27;;;;;;;1.52;0.70;;;16.90;84.80;;;;;;4903726;29;20048;-89
2023/08/23 02:02:04;;;;;;;2.83;0.50;;;16.90;84.80;;;;;;4908435;29;20079;-90
2023/08/23 02:04:35;;;;;;;;;;;16.90;84.90;;;;;;4924124;29;20048;-89
2023/08/23 02:07:08;;;;;;;1.35;0.50;;;16.80;84.80;;;;;;4904966;29;20237;-90
2023/08/23 02:09:40;;;;;;;1.25;0.73;;;16.80;84.90;;;;;;4918063;29;20055;-90
2023/08/23 02:12:20;;;;;;;1.13;0.50;;;16.80;85.00;;;;;;4903247;29;20076;-90
2023/08/23 02:14:50;;;;;;;2.30;0.60;;;16.80;85.10;;;;;;4900131;29;20055;-90
2023/08/23 02:17:19;;;;;;;2.50;0.50;;;16.70;85.10;;;;;;4911321;29;20056;-90
2023/08/23 02:19:49;;;;;;;2.83;0.60;;;16.70;85.10;;;;;;4907665;29;20095;-90
2023/08/23 02:22:22;;;;;;;1.98;0.45;;;16.70;85.30;;;;;;4909419;29;20056;-90
2023/08/23 02:24:53;;;;;;;0.88;0.50;;;16.70;85.30;;;;;;4912528;29;20066;-90
2023/08/23 02:27:28;;;;;;;2.92;0.65;;;16.70;85.50;;;;;;4912440;29;20136;-90
2023/08/23 02:30:00;;;;;;;1.25;0.50;;;16.70;85.50;;;;;;4914466;29;20052;-91
2023/08/23 02:32:34;;;;;;;1.02;0.50;;;16.60;85.50;;;;;;4900615;29;20068;-91
2023/08/23 02:35:07;;;;;;;1.87;0.50;;;16.60;86.20;;;;;;4915187;29;20056;-90
2023/08/23 02:37:38;;;;;;;1.60;0.68;;;16.60;85.60;;;;;;4933336;29;20238;-90
2023/08/23 02:40:12;;;;;;;1.13;0.57;;;16.60;85.80;;;;;;4903337;29;20052;-90
2023/08/23 02:42:53;;;;;;;1.40;0.50;;;16.60;85.80;;;;;;4886854;29;20134;-91
2023/08/23 02:45:42;;;;;;;1.48;0.40;;;16.50;85.80;;;;;;4921960;29;20090;-90
2023/08/23 02:48:10;;;;;;;1.60;0.60;;;16.50;85.80;;;;;;4902992;29;20107;-90
2023/08/23 02:50:42;;;;;;;1.77;0.45;;;16.50;85.90;;;;;;4915103;29;20075;-89
2023/08/23 02:53:13;;;;;;;2.42;0.50;;;16.50;85.90;;;;;;4909293;29;20147;-90
2023/08/23 02:55:41;;;;;;;0.90;0.50;;;16.50;86.10;;;;;;4906371;29;20108;-90
2023/08/23 02:58:15;;;;;;;1.55;0.38;;;16.50;86.10;;;;;;4922397;29;20048;-89
2023/08/23 03:00:52;;;;;;;0.98;0.60;;;16.40;86.10;;;;;;4937293;29;20048;-89
2023/08/23 03:03:22;;;;;;;1.40;0.50;;;16.40;86.20;;;;;;4922105;29;20083;-90
2023/08/23 03:05:57;;;;;;;2.95;0.57;;;16.40;86.20;;;;;;4918543;29;20048;-91
2023/08/23 03:08:35;;;;;;;0.77;0.30;;;16.40;86.20;;;;;;4902619;29;20044;-91
2023/08/23 03:11:15;;;;;;;1.65;0.70;;;16.40;86.20;;;;;;4914968;29;20147;-91
2023/08/23 03:13:56;;;;;;;1.08;0.40;;;16.40;86.10;;;;;;4896898;29;20499;-91
2023/08/23 03:16:23;;;;;;;1.17;0.43;;;16.50;86.10;;;;;;4904404;29;20193;-91
2023/08/23 03:18:52;;;;;;;1.45;0.45;;;16.50;85.90;;;;;;4914623;29;20071;-91
2023/08/23 03:21:27;;;;;;;2.78;0.50;;;16.50;85.90;;;;;;4915384;29;20058;-91
2023/08/23 03:23:59;;;;;;;1.40;0.50;;;16.50;85.90;;;;;;4905000;29;20048;-90
2023/08/23 03:26:29;;;;;;;2.05;0.50;;;16.50;86.00;;;;;;4905741;29;20070;-90
2023/08/23 03:28:58;;;;;;;1.35;0.43;;;16.50;86.10;;;;;;4893204;29;20055;-90
2023/08/23 03:31:28;;;;;;;1.13;0.40;;;16.50;86.20;;;;;;4914290;29;20063;-90
2023/08/23 03:33:59;;;;;;;0.73;0.40;;;16.50;86.20;;;;;;4917509;29;20044;-90
2023/08/23 03:36:30;;;;;;;1.45;0.60;;;16.50;86.20;;;;;;4917252;29;20416;-90
2023/08/23 03:39:03;;;;;;;0.80;0.45;;;16.50;86.30;;;;;;4922695;29;20040;-90
2023/08/23 03:41:37;;;;;;;0.65;0.40;;;16.40;86.30;;;;;;4921719;29;20051;-90
2023/08/23 03:44:11;;;;;;;2.13;0.68;;;16.40;86.40;;;;;;4913240;29;20077;-90
2023/08/23 03:46:38;;;;;;;2.05;0.68;;;16.30;86.50;;;;;;4901750;29;20412;-90
2023/08/23 03:49:15;;;;;;;1.23;0.40;;;16.30;86.60;;;;;;4917526;29;20054;-91
2023/08/23 03:51:46;;;;;;;1.58;0.60;;;16.30;86.70;;;;;;4910804;29;20048;-91
2023/08/23 03:54:14;;;;;;;1.67;0.50;;;16.20;86.70;;;;;;4902361;29;20048;-91
2023/08/23 03:56:44;;;;;;;1.80;0.50;;;16.20;86.70;;;;;;4908455;29;20047;-92
2023/08/23 03:59:26;;;;;;;0.93;0.45;;;16.20;86.80;;;;;;4907245;29;20055;-90
2023/08/23 04:01:56;;;;;;;2.35;0.55;;;16.20;86.90;;;;;;4921283;29;20119;-90
2023/08/23 04:04:39;;;;;;;1.13;0.50;;;16.20;87.00;;;;;;4907186;29;20048;-90
2023/08/23 04:07:18;;;;;;;1.17;0.52;;;16.20;87.10;;;;;;4931407;29;20050;-90
2023/08/23 04:09:48;;;;;;;1.70;0.47;;;16.20;87.10;;;;;;4906051;29;20584;-90
2023/08/23 04:12:18;;;;;;;0.77;0.40;;;16.10;87.10;;;;;;4927907;29;20052;-90
2023/08/23 04:15:18;;;;;;;1.20;0.45;;;16.10;87.10;;;;;;4916225;29;20036;-90
2023/08/23 04:17:48;;;;;;;1.33;0.57;;;16.10;87.10;;;;;;4917514;29;20044;-90
2023/08/23 04:20:16;;;;;;;2.50;0.60;;;16.10;87.20;;;;;;4890801;29;20047;-89
2023/08/23 04:22:46;;;;;;;1.50;0.55;;;16.00;87.30;;;;;;4905060;29;20067;-90
2023/08/23 04:25:20;;;;;;;2.20;0.77;;;16.00;87.30;;;;;;4920017;29;20147;-90
2023/08/23 04:27:53;;;;;;;1.27;0.57;;;16.10;87.40;;;;;;4909116;29;20118;-90
2023/08/23 04:30:21;;;;;;;1.85;0.70;;;16.00;87.40;;;;;;4886984;29;20056;-90
2023/08/23 04:33:01;;;;;;;1.05;0.55;;;16.00;87.40;;;;;;4917059;29;20152;-90
2023/08/23 04:35:32;;;;;;;1.25;0.60;;;16.00;87.40;;;;;;4911428;29;20052;-89
2023/08/23 04:38:13;;;;;;;1.40;0.50;;;16.00;87.40;;;;;;4908920;29;20070;-89
2023/08/23 04:40:46;;;;;;;0.95;0.55;;;16.00;87.50;;;;;;4913102;29;20453;-90
2023/08/23 04:43:33;;;;;;;1.58;0.50;;;16.00;87.50;;;;;;4919984;29;20567;-89
2023/08/23 04:46:08;;;;;;;0.90;0.40;;;16.10;87.50;;;;;;4904128;29;20135;-89
2023/08/23 04:48:41;;;;;;;1.35;0.57;;;16.00;87.50;;;;;;4918011;29;20078;-89
2023/08/23 04:51:13;;;;;;;1.73;0.77;;;16.00;87.40;;;;;;4902244;29;20058;-89
2023/08/23 04:53:46;;;;;;;0.95;0.50;;;16.00;87.50;;;;;;4921201;29;20040;-90
2023/08/23 04:56:13;;;;;;;1.50;0.40;;;16.00;87.50;;;;;;4896032;29;20166;-90
2023/08/23 04:58:49;;;;;;;0.90;0.50;;;16.00;87.50;;;;;;4910445;29;20051;-90
2023/08/23 05:01:48;;;;;;;1.67;0.70;;;16.10;87.70;;;;;;4913625;29;20441;-89
2023/08/23 05:04:21;;;;;;;0.98;0.40;;;16.10;87.70;;;;;;4915543;29;20048;-90
2023/08/23 05:07:02;;;;;;;1.10;0.47;;;16.10;87.70;;;;;;4918660;29;20052;-89
2023/08/23 05:09:42;;;;;;;1.30;0.63;;;16.20;87.60;;;;;;4919885;29;20054;-89
2023/08/23 05:12:37;;;;;;;2.03;0.70;;;16.20;87.50;;;;;;4899567;29;20043;-89
2023/08/23 05:15:21;;;;;;;1.27;0.70;;;16.30;87.60;;;;;;4929941;29;20052;-89
2023/08/23 05:17:48;;;;;;;1.33;0.45;;;16.30;87.50;;;;;;4908961;29;20527;-89
2023/08/23 05:20:17;;;;;;;2.40;0.60;;;16.40;87.50;;;;;;4914622;29;20519;-89
2023/08/23 05:22:48;;;;;;;2.55;0.65;;;16.40;87.50;;;;;;4886104;29;20054;-90
2023/08/23 05:25:18;;;;;;;1.50;0.50;;;16.40;87.40;;;;;;4916708;29;20056;-89
2023/08/23 05:27:53;;;;;;;1.52;0.40;;;16.50;87.40;;;;;;4919337;29;20058;-89
2023/08/23 05:30:31;;;;;;;1.00;0.40;;;16.50;87.40;;;;;;4904463;29;20048;-89
2023/08/23 05:33:20;;;;;;;1.55;0.60;;;16.50;87.40;;;;;;4919990;29;20489;-89
2023/08/23 05:35:51;;;;;;;0.80;0.40;;;16.60;87.40;;;;;;4896105;29;20098;-89
2023/08/23 05:38:23;;;;;;;1.73;0.50;;;16.60;87.40;;;;;;4923210;29;20043;-89
2023/08/23 05:40:57;;;;;;;1.77;0.52;;;16.70;87.40;;;;;;4906438;29;20523;-89
2023/08/23 05:43:28;;;;;;;;;;;16.70;87.40;;;;;;4907708;29;20115;-89
2023/08/23 05:46:03;;;;;;;1.90;0.50;;;16.70;87.20;;;;;;4907501;29;20009;-89
2023/08/23 05:48:34;;;;;;;1.88;0.77;;;16.80;87.20;;;;;;4922562;29;20048;-89
2023/08/23 05:51:05;;;;;;;1.85;0.63;;;16.90;87.10;;;;;;4920735;29;20051;-91
2023/08/23 05:53:43;;;;;;;1.50;0.50;;;16.90;87.00;;;;;;4903931;29;20059;-90
2023/08/23 05:56:13;;;;;;;1.52;0.88;;;17.00;87.00;;;;;;4919642;29;20078;-89
2023/08/23 05:58:40;;;;;;;2.15;0.65;;;17.10;87.00;;;;;;4911625;29;20473;-87
2023/08/23 06:01:10;;;;;;;1.60;0.82;;;17.20;87.00;;;;;;4919391;29;20484;-88
2023/08/23 06:03:38;;;;;;;3.63;1.00;;;17.20;86.90;;;;;;4924504;29;20048;-88
2023/08/23 06:06:08;;;;;;;2.33;0.98;;;17.30;86.90;;;;;;4887701;29;20070;-95
2023/08/23 06:08:37;;;;;;;1.73;0.80;;;17.40;86.80;;;;;;4908981;29;20055;-83
2023/08/23 06:11:04;;;;;;;2.00;0.70;;;17.50;86.60;;;;;;4908825;29;20052;-84
2023/08/23 06:13:33;;;;;;;2.88;0.93;;;17.60;86.50;;;;;;4905985;29;20083;-83
2023/08/23 06:16:00;;;;;;;2.42;1.10;;;17.70;86.40;;;;;;4932431;29;20060;-84
2023/08/23 06:18:27;;;;;;;2.05;0.80;;;17.80;86.30;;;;;;4921750;29;20409;-83
2023/08/23 06:20:55;;;;;;;2.25;1.13;;;17.90;86.20;;;;;;4889983;29;20043;-84
2023/08/23 06:23:22;;;;;;;3.55;1.38;;;18.00;86.10;;;;;;4907602;29;20078;-84
2023/08/23 06:25:49;;;;;;;2.67;1.15;;;18.10;86.00;;;;;;4891364;29;20150;-84
2023/08/23 06:28:19;;;;;;;3.55;1.50;;;18.20;86.00;;;;;;4918716;29;20044;-84
2023/08/23 06:30:46;;;;;;;5.85;2.17;;;18.30;85.90;;;;;;4920742;29;20052;-84
2023/08/23 06:33:14;;;;;;;5.32;3.05;;;18.40;85.80;;;;;;4904825;29;20361;-84
2023/08/23 06:35:44;;;;;;;4.25;2.10;;;18.50;85.70;;;;;;4905397;29;20044;-84
2023/08/23 06:38:15;;;;;;;4.18;2.05;;;18.60;85.60;;;;;;4917952;29;20036;-84
2023/08/23 06:40:43;;;;;;;;;;;18.70;85.40;;;;;;4920860;29;20476;-84
2023/08/23 06:43:19;;;;;;;3.38;1.33;;;18.80;85.10;;;;;;4929073;29;19923;-84
2023/08/23 06:45:46;;;;;;;5.05;2.42;;;18.90;85.10;;;;;;4932575;29;20039;-83
2023/08/23 06:48:13;;;;;;;3.78;1.90;;;19.00;85.00;;;;;;4913704;29;20052;-83
2023/08/23 06:50:40;;;;;;;3.65;1.73;;;19.10;85.00;;;;;;4901818;29;20053;-84
2023/08/23 06:53:11;;;;;;;3.20;1.50;;;19.20;84.90;;;;;;4921161;29;20369;-83
2023/08/23 06:55:41;;;;;;;2.20;1.20;;;19.30;84.70;;;;;;4920688;29;20073;-83
2023/08/23 06:58:09;;;;;;;3.45;1.60;;;19.40;84.70;;;;;;4907281;29;20080;-96
2023/08/23 07:00:36;;;;;;;2.83;1.23;;;19.50;84.60;;;;;;4907348;29;20099;-90
2023/08/23 07:03:07;;;;;;;2.47;1.08;;;19.60;84.40;;;;;;4903820;29;20564;-96
2023/08/23 07:05:35;;;;;;;3.17;1.58;;;19.70;84.30;;;;;;4903855;29;20058;-91
2023/08/23 07:08:02;;;;;;;3.58;1.60;;;19.80;84.10;;;;;;4903684;29;20152;-96
2023/08/23 07:10:30;;;;;;;3.50;2.10;;;19.80;84.00;;;;;;4919157;29;20079;-90
2023/08/23 07:13:00;;;;;;;2.67;1.55;;;19.90;84.00;;;;;;4888851;29;20064;-95
2023/08/23 07:15:27;;;;;;;3.85;2.10;;;20.00;83.80;;;;;;4903890;29;20099;-90
2023/08/23 07:17:55;;;;;;;3.67;1.92;;;20.00;83.80;;;;;;4888807;29;20074;-96
2023/08/23 07:20:22;;;;;;;2.47;1.33;;;20.10;83.70;;;;;;4918645;29;20054;-94
2023/08/23 07:22:52;;;;;;;3.03;1.13;;;20.20;83.50;;;;;;4904256;29;20051;-94
2023/08/23 07:25:25;;;;;;;1.95;0.95;;;20.30;83.40;;;;;;4919437;29;20060;-91
2023/08/23 07:27:52;;;;;;;4.45;2.40;;;20.40;83.30;;;;;;4902411;29;20143;-90
2023/08/23 07:30:22;;;;;;;3.67;2.10;;;20.40;83.10;;;;;;4919976;29;20067;-92
2023/08/23 07:32:49;;;;;;;3.70;1.67;;;20.50;82.90;;;;;;4906163;29;20051;-92
2023/08/23 07:35:17;;;;;;;7.00;1.80;;;20.60;82.80;;;;;;4921971;29;20051;-94
2023/08/23 07:37:44;;;;;;;3.78;1.58;;;20.70;82.60;;;;;;4872702;29;20052;-95
2023/08/23 07:40:12;;;;;;;3.83;1.67;;;20.80;82.40;;;;;;4887386;29;20059;-95
2023/08/23 07:42:41;;;;;;;3.67;1.27;;;20.80;82.20;;;;;;4906372;29;20485;-89
2023/08/23 07:45:12;;;;;;;2.65;1.48;;;20.90;82.00;;;;;;4906228;29;20048;-95
2023/08/23 07:47:42;;;;;;;3.28;1.38;;;20.90;81.80;;;;;;4921576;29;20051;-95
2023/08/23 07:50:10;;;;;;;3.10;1.48;;;21.00;81.60;;;;;;4921176;29;20051;-95
2023/08/23 07:52:37;;;;;;;3.67;1.48;;;21.10;81.30;;;;;;4905887;29;20056;-96
2023/08/23 07:55:08;;;;;;;2.83;0.90;;;21.10;81.00;;;;;;4921744;29;20064;-95
2023/08/23 07:57:38;;;;;;;3.40;0.80;;;21.20;81.00;;;;;;4905630;29;20068;-92
2023/08/23 08:00:06;;;;;;;4.00;1.48;;;21.30;80.80;;;;;;4921050;29;20048;-91
2023/08/23 08:02:34;;;;;;;2.20;0.82;;;21.40;80.50;;;;;;4921174;29;20488;-92
2023/08/23 08:05:02;;;;;;;2.70;1.40;;;21.40;80.30;;;;;;4907688;29;20247;-90
2023/08/23 08:07:30;;;;;;;3.00;1.00;;;21.40;79.90;;;;;;4921173;29;20078;-92
2023/08/23 08:10:19;;;;;;;2.08;0.85;;;21.50;79.70;;;;;;4917666;29;20048;-93
2023/08/23 08:12:46;;;;;;;2.00;0.70;;;21.60;79.60;;;;;;4911162;29;20059;-92
2023/08/23 08:15:14;;;;;;;1.67;0.57;;;21.70;79.40;;;;;;4915190;29;20051;-84
2023/08/23 08:17:43;;;;;;;1.77;0.52;;;21.80;79.20;;;;;;4908319;29;20067;-84
2023/08/23 08:20:12;;;;;;;2.88;0.95;;;21.90;79.60;;;;;;4919775;29;20051;-83
2023/08/23 08:22:42;;;;;;;2.50;1.33;;;22.10;78.60;;;;;;4926372;29;20485;-84
2023/08/23 08:25:09;;;;;;;3.60;1.30;;;22.10;78.10;;;;;;4913968;29;20063;-84
2023/08/23 08:27:40;;;;;;;2.17;0.80;;;22.10;78.00;;;;;;4894758;29;20050;-85
2023/08/23 08:30:09;;;;;;;1.95;0.88;;;22.20;78.00;;;;;;4916877;29;20062;-84
2023/08/23 08:32:37;;;;;;;3.35;1.23;;;22.30;77.80;;;;;;4908087;29;20122;-84
2023/08/23 08:35:57;;;;;;;3.15;1.25;;;22.50;77.60;;;;;;4910649;29;20471;-91
2023/08/23 08:38:23;;;;;;;2.70;1.00;;;22.60;77.20;;;;;;4920729;29;20501;-86
2023/08/23 08:41:01;;;;;;;4.75;1.48;;;22.60;76.90;;;;;;4900319;29;20127;-84
2023/08/23 08:43:31;;;;;;;;;;;22.60;76.40;;;;;;4904100;29;20048;-84
2023/08/23 08:46:01;;;;;;;1.75;0.98;;;22.70;76.40;;;;;;4901272;29;19922;-84
2023/08/23 08:48:28;;;;;;;4.40;2.13;;;22.70;76.20;;;;;;4899567;29;20071;-84
2023/08/23 08:51:06;;;;;;;3.55;2.13;;;22.70;75.80;;;;;;4899478;29;20052;-94
2023/08/23 08:53:38;;;;;;;4.43;1.70;;;22.80;75.30;;;;;;4899318;29;20044;-85
2023/08/23 08:56:07;;;;;;;4.28;1.33;;;22.80;75.40;;;;;;4912550;29;20106;-86
2023/08/23 08:58:35;;;;;;;2.05;1.30;;;22.90;75.20;;;;;;4922690;29;20040;-88
2023/08/23 09:01:09;;;;;;;3.65;1.60;;;23.00;75.20;;;;;;4919188;29;20044;-85
2023/08/23 09:03:37;;;;;;;3.33;1.70;;;23.00;75.00;;;;;;4911695;29;20052;-84
2023/08/23 09:06:04;;;;;;;2.08;1.00;;;23.10;74.80;;;;;;4897017;29;20051;-83
2023/08/23 09:08:33;;;;;;;4.07;1.45;;;23.10;74.60;;;;;;4899402;29;20056;-86
2023/08/23 09:11:02;;;;;;;3.25;1.33;;;23.20;74.30;;;;;;4899219;29;20052;-84
2023/08/23 09:13:31;;;;;;;3.97;1.38;;;23.30;74.10;;;;;;4901891;29;20146;-86
2023/08/23 09:16:04;;;;;;;2.25;0.80;;;23.40;74.00;;;;;;4902974;29;20445;-90
2023/08/23 09:18:46;;;;;;;;;;;;;;;;;;;;;
2023/08/23 09:21:41;;;;;;;2.45;1.10;;;23.60;73.70;;;;;;4924128;29;20050;-93
2023/08/23 09:24:08;;;;;;;2.55;0.90;;;23.70;73.60;;;;;;4904644;29;20070;-87
2023/08/23 09:26:38;;;;;;;2.00;0.90;;;23.70;73.30;;;;;;4886684;29;20086;-86
2023/08/23 09:29:07;;;;;;;2.58;1.17;;;23.80;73.20;;;;;;4884543;29;20143;-82
2023/08/23 09:31:38;;;;;;;2.67;1.05;;;24.00;72.90;;;;;;4912933;29;20415;-89
2023/08/23 09:34:15;;;;;;;2.17;0.82;;;24.10;72.70;;;;;;4903932;29;20052;-84
2023/08/23 09:36:42;;;;;;;1.60;0.68;;;24.10;72.50;;;;;;4899764;29;20072;-91
2023/08/23 09:39:10;;;;;;;1.98;0.70;;;24.20;72.40;;;;;;4894471;29;20048;-86
2023/08/23 09:41:44;;;;;;;2.85;1.52;;;24.20;72.00;;;;;;4915377;29;20040;-91
2023/08/23 09:44:40;;;;;;;2.45;1.02;;;24.20;70.80;;;;;;4907536;29;20149;-88
2023/08/23 09:47:21;;;;;;;3.13;0.90;;;24.10;70.90;;;;;;4903160;29;20412;-94
2023/08/23 09:49:51;;;;;;;1.52;0.57;;;24.20;70.70;;;;;;4904857;29;20044;-88
2023/08/23 09:52:24;;;;;;;2.40;1.05;;;24.20;70.70;;;;;;4918848;29;20135;-91
2023/08/23 09:55:02;;;;;;;2.78;1.08;;;24.30;70.00;;;;;;4928925;29;20072;-85
2023/08/23 09:58:30;;;;;;;;;;;;;;;;;;;;;
2023/08/23 10:01:33;;;;;;;1.55;0.50;;;24.50;69.60;;;;;;4931229;29;20582;-87
2023/08/23 10:04:07;;;;;;;2.83;0.80;;;24.50;69.70;;;;;;4885469;29;20052;-83
2023/08/23 10:06:35;;;;;;;1.63;0.70;;;24.70;69.50;;;;;;4901905;29;20052;-86
2023/08/23 10:09:03;;;;;;;1.90;0.60;;;24.80;68.90;;;;;;4906450;29;20111;-85
2023/08/23 10:11:32;;;;;;;2.47;0.73;;;24.90;68.00;;;;;;4918257;29;20412;-82
2023/08/23 10:14:16;;;;;;;3.10;0.70;;;25.00;67.80;;;;;;4915411;29;20048;-89
2023/08/23 10:16:49;;;;;;;3.20;1.08;;;25.10;67.30;;;;;;4918312;29;20052;-87
2023/08/23 10:19:17;;;;;;;2.05;0.85;;;25.20;66.70;;;;;;4909807;29;20052;-83
2023/08/23 10:21:48;;;;;;;2.05;0.90;;;25.30;66.10;;;;;;4908826;29;20164;-87
2023/08/23 10:24:17;;;;;;;1.67;0.70;;;25.50;65.50;;;;;;4905070;29;20051;-84
2023/08/23 10:26:49;;;;;;;0.98;0.47;;;25.60;64.80;;;;;;4908434;29;20154;-87
2023/08/23 10:29:26;;;;;;;1.52;0.60;;;25.80;64.60;;;;;;4921626;29;20059;-86
2023/08/23 10:31:54;;;;;;;1.52;0.60;;;26.10;63.40;;;;;;4904442;29;20051;-89
2023/08/23 10:34:28;;;;;;;2.53;0.65;;;26.30;63.00;;;;;;4925910;29;20036;-90
2023/08/23 10:36:56;;;;;;;1.55;0.50;;;26.50;62.20;;;;;;4902747;29;20096;-87
2023/08/23 10:39:27;;;;;;;2.45;0.90;;;26.60;62.00;;;;;;4909665;29;20044;-83
2023/08/23 10:41:54;;;;;;;2.50;0.73;;;26.70;60.90;;;;;;4921161;29;20047;-87
2023/08/23 10:44:22;;;;;;;2.08;0.63;;;26.70;60.80;;;;;;4915200;29;20067;-84
2023/08/23 10:47:06;;;;;;;1.35;0.55;;;26.90;60.60;;;;;;4902163;29;20154;-86
2023/08/23 10:49:39;;;;;;;2.08;0.70;;;26.90;59.60;;;;;;4904570;29;20094;-91
2023/08/23 10:52:07;;;;;;;2.55;0.77;;;27.00;59.10;;;;;;4922368;29;20138;-89
2023/08/23 10:54:38;;;;;;;1.17;0.50;;;27.10;59.30;;;;;;4905724;29;20044;-94
2023/08/23 10:57:07;;;;;;;1.60;0.50;;;27.30;59.00;;;;;;4903003;29;20074;-88
2023/08/23 10:59:38;;;;;;;1.50;0.43;;;27.50;58.70;;;;;;4889491;29;20108;-88
2023/08/23 11:02:07;;;;;;;2.55;0.50;;;27.70;58.30;;;;;;4926291;29;20560;-88
2023/08/23 11:04:35;;;;;;;1.77;0.45;;;27.80;57.90;;;;;;4935467;29;20059;-90
2023/08/23 11:07:03;;;;;;;0.77;0.40;;;27.90;57.60;;;;;;4902742;29;20458;-90
2023/08/23 11:09:30;;;;;;;0.73;0.30;;;28.20;58.30;;;;;;4886585;29;20104;-87
2023/08/23 11:11:57;;;;;;;1.35;0.50;;;28.30;57.40;;;;;;4877192;29;20099;-89
2023/08/23 11:14:24;;;;;;;1.00;0.35;;;27.80;57.80;;;;;;4902470;29;20497;-91
2023/08/23 11:16:52;;;;;;;1.67;0.40;;;27.30;58.80;;;;;;4902471;29;20048;-90
2023/08/23 11:19:19;;;;;;;1.00;0.40;;;26.90;59.20;;;;;;4912981;29;20071;-92
2023/08/23 11:21:49;;;;;;;1.25;0.40;;;26.50;59.70;;;;;;4910594;29;20048;-88
2023/08/23 11:24:17;;;;;;;1.55;0.28;;;26.40;60.10;;;;;;4911851;29;20052;-88
2023/08/23 11:26:44;;;;;;;1.17;0.45;;;26.20;60.50;;;;;;4916829;29;20063;-89
2023/08/23 11:29:13;;;;;;;0.60;0.30;;;26.40;60.80;;;;;;4894659;29;20047;-89
2023/08/23 11:31:53;;;;;;;1.85;0.40;;;27.20;59.70;;;;;;4904524;29;20121;-90
2023/08/23 11:34:21;;;;;;;1.25;0.32;;;28.00;58.30;;;;;;4901856;29;20056;-89
2023/08/23 11:36:48;;;;;;;1.50;0.43;;;28.40;56.60;;;;;;4915666;29;20086;-91
2023/08/23 11:39:18;;;;;;;2.00;0.40;;;28.50;55.70;;;;;;4902073;29;20143;-92
2023/08/23 11:41:50;;;;;;;0.85;0.40;;;28.80;55.40;;;;;;4902399;29;20044;-92
2023/08/23 11:44:18;;;;;;;0.90;0.40;;;29.00;54.90;;;;;;4904662;29;20056;-90
2023/08/23 11:46:49;;;;;;;1.02;0.47;;;29.10;54.60;;;;;;4908292;29;20048;-90
2023/08/23 11:49:18;;;;;;;1.33;0.50;;;29.30;54.70;;;;;;4919416;29;20044;-92
2023/08/23 11:51:50;;;;;;;1.05;0.30;;;29.40;54.40;;;;;;4901402;29;20555;-90
2023/08/23 11:54:22;;;;;;;0.60;0.30;;;29.40;54.40;;;;;;4920465;29;20103;-92
2023/08/23 11:56:58;;;;;;;1.13;0.40;;;29.40;53.90;;;;;;4906722;29;20043;-92
2023/08/23 11:59:25;;;;;;;2.42;0.47;;;29.50;54.00;;;;;;4921215;29;20052;-93
2023/08/23 12:01:56;;;;;;;1.65;0.32;;;29.60;53.70;;;;;;4912603;29;20048;-89
2023/08/23 12:04:31;;;;;;;1.45;0.40;;;29.80;53.70;;;;;;4902654;29;20059;-96
2023/08/23 12:07:10;;;;;;;1.25;0.40;;;30.00;53.00;;;;;;4906685;29;20052;-92
2023/08/23 12:09:39;;;;;;;1.40;0.40;;;29.90;52.40;;;;;;4895764;29;20054;-90
2023/08/23 12:12:10;;;;;;;1.50;0.40;;;29.80;52.50;;;;;;4917858;29;20147;-94
2023/08/23 12:14:37;;;;;;;0.82;0.30;;;29.20;52.80;;;;;;4886336;29;20048;-92
2023/08/23 12:17:04;;;;;;;0.65;0.30;;;28.40;53.80;;;;;;4891719;29;20047;-89
2023/08/23 12:19:36;;;;;;;1.13;0.40;;;27.90;54.60;;;;;;4904973;29;20039;-88
2023/08/23 12:22:06;;;;;;;1.83;0.40;;;27.50;55.20;;;;;;4904706;29;20503;-85
2023/08/23 12:24:33;;;;;;;1.00;0.30;;;27.20;55.70;;;;;;4903679;29;20556;-86
2023/08/23 12:27:01;;;;;;;1.40;0.20;;;26.90;56.10;;;;;;4913680;29;20063;-85
2023/08/23 12:29:28;;;;;;;1.20;0.60;;;26.80;56.30;;;;;;4900158;29;20066;-86
2023/08/23 12:31:57;;;;;;;0.88;0.20;;;26.70;56.20;;;;;;4870000;29;20449;-85
2023/08/23 12:34:25;;;;;;;1.55;0.35;;;26.60;56.10;;;;;;4893231;29;20050;-88
2023/08/23 12:37:00;;;;;;;1.88;0.47;;;26.60;56.20;;;;;;4906372;29;20044;-89
2023/08/23 12:39:28;;;;;;;2.72;0.50;;;26.60;56.10;;;;;;4900646;29;20044;-88
2023/08/23 12:41:55;;;;;;;2.17;0.38;;;26.50;56.10;;;;;;4907358;29;20044;-84
2023/08/23 12:44:23;;;;;;;0.65;0.20;;;26.50;56.30;;;;;;4899734;29;20048;-88
2023/08/23 12:46:50;;;;;;;0.77;0.35;;;26.50;56.10;;;;;;4915723;29;20147;-88
2023/08/23 12:49:18;;;;;;;0.88;0.30;;;26.50;55.90;;;;;;4901309;29;20051;-88
2023/08/23 12:51:45;;;;;;;0.98;0.32;;;26.50;56.00;;;;;;4917105;29;20048;-87
2023/08/23 12:54:14;;;;;;;1.88;0.30;;;26.50;56.10;;;;;;4916989;29;20055;-89
2023/08/23 12:56:41;;;;;;;1.25;0.50;;;26.60;55.90;;;;;;4900429;29;20131;-87
2023/08/23 12:59:08;;;;;;;0.30;0.20;;;26.60;55.30;;;;;;4901742;29;20072;-84
2023/08/23 13:01:36;;;;;;;0.50;0.20;;;26.60;55.60;;;;;;4898776;29;20048;-86
2023/08/23 13:04:04;;;;;;;0.60;0.20;;;26.60;55.70;;;;;;4917723;29;20063;-84
2023/08/23 13:06:33;;;;;;;0.70;0.30;;;26.60;55.60;;;;;;4918276;29;20043;-81
2023/08/23 13:09:00;;;;;;;1.20;0.30;;;26.60;55.30;;;;;;4931844;29;20075;-83
2023/08/23 13:11:27;;;;;;;1.60;0.35;;;26.60;55.40;;;;;;4901709;29;20099;-83
2023/08/23 13:13:54;;;;;;;1.77;0.40;;;26.60;55.60;;;;;;4892377;29;20659;-83
2023/08/23 13:16:21;;;;;;;0.70;0.20;;;26.60;56.20;;;;;;4914825;29;20067;-83